Airport Name : Kagoshima

Other Name : Kagoshima

ICAO : RJFK

IATA : KOJ

FAA :

Latitude : 31.803397

Longitude : 130.719408

Country : Japan

Local Date and Time : 7/19/2018 7:06:00 AM

 

TAF (Terminal Aerodrome Forecast)

TAF AMD RJFK 182103Z 1821/2000 02003KT 9999 FEW030 BECMG 1822/1900 10011KT BECMG 1915/1918 31004KT BECMG 1921/2000 08011KT

 

METAR (METeorological Aerodrome Report)

RJFK 182100Z 36003KT 6000 FEW035 SCT/// 22/21 Q1011 RMK 1CU035 A2987